Time;durP1;ratioP1;P1;durP2;ratioP2;P2;SDS_P1;SDS_P2;PMS_P1;PMS_P2;Temp;Humidity;BMP_temperature;BMP_pressure;BME280_temperature;BME280_humidity;BME280_pressure;Samples;Min_cycle;Max_cycle;Signal;HPM_P1;HPM_P2
2022/09/19 00:01:16;;;;;;;11.60;2.30;;;11.40;99.90;;;;;;5025459;28;20047;-78
2022/09/19 00:03:46;;;;;;;8.43;1.92;;;11.40;99.90;;;;;;5045826;28;20516;-79
2022/09/19 00:06:15;;;;;;;11.20;2.20;;;11.40;99.90;;;;;;5051096;28;20037;-78
2022/09/19 00:08:43;;;;;;;13.15;1.90;;;11.90;99.90;;;;;;5044776;28;20041;-78
2022/09/19 00:11:11;;;;;;;13.73;2.30;;;11.90;99.90;;;;;;5028847;28;20041;-78
2022/09/19 00:13:41;;;;;;;8.75;1.98;;;11.40;99.90;;;;;;5039424;28;20076;-78
2022/09/19 00:16:07;;;;;;;8.82;1.70;;;11.50;99.90;;;;;;5028407;28;20492;-79
2022/09/19 00:18:33;;;;;;;9.95;2.05;;;11.50;99.90;;;;;;5051365;28;20071;-78
2022/09/19 00:21:00;;;;;;;10.35;2.00;;;11.80;99.90;;;;;;5029048;28;20065;-79
2022/09/19 00:26:13;;;;;;;8.90;2.00;;;11.60;99.90;;;;;;5038507;28;20052;-80
2022/09/19 00:28:42;;;;;;;12.38;1.98;;;12.10;99.90;;;;;;5031484;28;20071;-80
2022/09/19 00:31:18;;;;;;;10.80;1.98;;;11.50;99.90;;;;;;5029670;28;20492;-80
2022/09/19 00:33:46;;;;;;;10.88;2.00;;;11.50;99.90;;;;;;5018612;28;20469;-80
2022/09/19 00:36:13;;;;;;;14.27;2.35;;;11.50;99.90;;;;;;5026724;28;20308;-80
2022/09/19 00:38:39;;;;;;;7.60;1.60;;;11.90;99.90;;;;;;5049374;28;20059;-79
2022/09/19 00:41:06;;;;;;;9.27;1.92;;;11.60;99.90;;;;;;5042458;28;20107;-80
2022/09/19 00:43:55;;;;;;;10.15;1.70;;;11.90;99.90;;;;;;5040622;28;20044;-80
2022/09/19 00:46:24;;;;;;;11.75;2.15;;;11.60;99.90;;;;;;5036741;28;20041;-79
2022/09/19 00:49:05;;;;;;;11.68;2.47;;;11.80;99.90;;;;;;5037240;28;20065;-79
2022/09/19 00:51:48;;;;;;;9.30;1.90;;;11.60;99.90;;;;;;5020971;28;20082;-80
2022/09/19 00:54:24;;;;;;;10.35;1.77;;;11.50;99.90;;;;;;5019587;28;20029;-78
2022/09/19 00:56:53;;;;;;;10.05;1.77;;;11.70;99.90;;;;;;5048375;28;20116;-78
2022/09/19 00:59:23;;;;;;;11.43;2.35;;;11.60;99.90;;;;;;5027807;28;20120;-78
2022/09/19 01:01:53;;;;;;;11.40;2.25;;;11.50;99.90;;;;;;5041918;28;20073;-80
2022/09/19 01:04:22;;;;;;;10.90;2.35;;;11.90;99.90;;;;;;5044560;28;20124;-79
2022/09/19 01:06:56;;;;;;;8.80;1.60;;;11.50;99.90;;;;;;5038381;28;20053;-78
2022/09/19 01:09:28;;;;;;;9.60;1.98;;;11.70;99.90;;;;;;5041050;28;20050;-80
2022/09/19 01:12:24;;;;;;;11.13;2.65;;;11.80;99.90;;;;;;5046579;28;20401;-80
2022/09/19 01:15:09;;;;;;;9.65;2.05;;;11.50;99.90;;;;;;5046406;28;20555;-80
2022/09/19 01:17:54;;;;;;;8.52;2.08;;;11.50;99.90;;;;;;5036330;28;20116;-80
2022/09/19 01:20:41;;;;;;;9.45;1.83;;;11.60;99.90;;;;;;5025310;28;20037;-79
2022/09/19 01:23:17;;;;;;;8.68;2.03;;;11.50;99.90;;;;;;5029640;28;20048;-80
2022/09/19 01:26:11;;;;;;;9.52;2.30;;;11.50;99.90;;;;;;5030778;28;20497;-80
2022/09/19 01:28:47;;;;;;;8.50;2.00;;;11.50;99.90;;;;;;5043736;28;20037;-79
2022/09/19 01:31:21;;;;;;;13.82;2.22;;;11.50;99.90;;;;;;5032942;28;20398;-79
2022/09/19 01:34:21;;;;;;;11.43;2.25;;;11.80;99.90;;;;;;5045261;28;20378;-80
2022/09/19 01:37:02;;;;;;;10.68;2.08;;;11.50;99.90;;;;;;5033077;28;20044;-80
2022/09/19 01:39:29;;;;;;;10.40;1.95;;;11.50;99.90;;;;;;5049544;28;20056;-80
2022/09/19 01:41:58;;;;;;;11.52;2.28;;;11.50;99.90;;;;;;5045415;28;20116;-80
2022/09/19 01:44:26;;;;;;;6.20;1.80;;;11.50;99.90;;;;;;5047921;28;20052;-80
2022/09/19 01:47:34;;;;;;;9.27;1.88;;;11.50;99.90;;;;;;5032586;28;20038;-79
2022/09/19 01:50:25;;;;;;;7.35;1.58;;;11.50;99.90;;;;;;5049489;28;20083;-80
2022/09/19 01:53:20;;;;;;;8.52;1.83;;;11.50;99.90;;;;;;5028188;28;20127;-79
2022/09/19 01:56:16;;;;;;;8.40;1.90;;;11.50;99.90;;;;;;5049916;28;20041;-80
2022/09/19 01:59:05;;;;;;;9.90;2.15;;;11.50;99.90;;;;;;5042548;28;20041;-80
2022/09/19 02:01:50;;;;;;;11.27;1.80;;;11.50;99.90;;;;;;5037811;28;20030;-80
2022/09/19 02:04:16;;;;;;;7.13;1.60;;;11.90;99.90;;;;;;5048001;28;20132;-80
2022/09/19 02:07:24;;;;;;;11.55;2.08;;;12.00;99.90;;;;;;5046035;28;20095;-79
2022/09/19 02:09:53;;;;;;;9.57;2.10;;;11.50;99.90;;;;;;4990868;28;20064;-80
2022/09/19 02:12:22;;;;;;;7.53;1.77;;;11.70;99.90;;;;;;5040918;28;20048;-79
2022/09/19 02:14:54;;;;;;;14.13;1.85;;;12.00;99.90;;;;;;5042957;28;20534;-80
2022/09/19 02:17:32;;;;;;;7.20;1.67;;;11.50;99.90;;;;;;5028911;28;20068;-80
2022/09/19 02:20:08;;;;;;;13.73;2.05;;;11.90;99.90;;;;;;5047333;28;20048;-78
2022/09/19 02:22:51;;;;;;;11.27;2.55;;;11.60;99.90;;;;;;5035069;28;20442;-78
2022/09/19 02:25:21;;;;;;;6.53;1.40;;;11.40;99.90;;;;;;5034424;28;20041;-78
2022/09/19 02:27:57;;;;;;;11.73;1.80;;;11.30;99.90;;;;;;5027449;28;20094;-77
2022/09/19 02:30:26;;;;;;;8.88;1.63;;;11.30;99.90;;;;;;5028932;28;20203;-80
2022/09/19 02:32:53;;;;;;;10.38;2.00;;;11.60;99.90;;;;;;5026504;28;20038;-79
2022/09/19 02:35:50;;;;;;;8.80;2.33;;;11.20;99.90;;;;;;5047771;28;20063;-80
2022/09/19 02:38:25;;;;;;;8.75;2.10;;;11.50;99.90;;;;;;4995310;28;20404;-80
2022/09/19 02:41:11;;;;;;;14.02;1.95;;;11.10;99.90;;;;;;5053488;28;20424;-80
2022/09/19 02:43:52;;;;;;;8.10;1.58;;;11.10;99.90;;;;;;5031013;28;20029;-80
2022/09/19 02:46:35;;;;;;;9.10;1.70;;;11.00;99.90;;;;;;5040573;28;20098;-79
2022/09/19 02:49:12;;;;;;;9.82;2.13;;;11.00;99.90;;;;;;5036965;28;20374;-79
2022/09/19 02:51:50;;;;;;;10.57;1.80;;;11.30;99.90;;;;;;5039112;28;20087;-80
2022/09/19 02:54:26;;;;;;;8.00;1.90;;;11.10;99.90;;;;;;5040919;28;20064;-79
2022/09/19 02:56:58;;;;;;;9.10;1.55;;;11.00;99.90;;;;;;5034386;28;20064;-80
2022/09/19 02:59:28;;;;;;;7.80;1.80;;;11.30;99.90;;;;;;5034530;28;20037;-80
2022/09/19 03:02:06;;;;;;;10.63;1.90;;;11.40;99.90;;;;;;5050212;28;20120;-78
2022/09/19 03:04:39;;;;;;;9.40;2.10;;;11.00;99.90;;;;;;5045855;28;20050;-77
2022/09/19 03:07:25;;;;;;;8.68;1.95;;;10.90;99.90;;;;;;5028771;28;20052;-79
2022/09/19 03:10:12;;;;;;;10.95;2.30;;;11.50;99.90;;;;;;5035629;28;20045;-77
2022/09/19 03:12:49;;;;;;;10.23;2.20;;;10.90;99.90;;;;;;5025810;28;20044;-78
2022/09/19 03:15:16;;;;;;;8.05;1.77;;;10.90;99.90;;;;;;5029983;28;20489;-78
2022/09/19 03:17:49;;;;;;;10.55;1.80;;;10.90;99.90;;;;;;5028037;28;20060;-78
2022/09/19 03:20:23;;;;;;;9.68;1.90;;;11.50;99.90;;;;;;5023340;28;20033;-78
2022/09/19 03:22:53;;;;;;;15.95;2.00;;;10.90;99.90;;;;;;5042064;28;20630;-78
2022/09/19 03:25:27;;;;;;;10.98;2.10;;;11.00;99.90;;;;;;5032278;28;20104;-78
2022/09/19 03:27:58;;;;;;;8.02;1.77;;;11.00;99.90;;;;;;5035575;28;20513;-78
2022/09/19 03:30:24;;;;;;;11.23;1.80;;;11.00;99.90;;;;;;5040846;28;20386;-78
2022/09/19 03:32:50;;;;;;;10.43;2.00;;;11.10;99.90;;;;;;5049692;28;20057;-78
2022/09/19 03:35:15;;;;;;;9.00;1.90;;;11.40;99.90;;;;;;5051602;28;20037;-78
2022/09/19 03:37:42;;;;;;;9.70;2.55;;;11.00;99.90;;;;;;5050384;28;20055;-78
2022/09/19 03:40:08;;;;;;;10.35;2.05;;;11.00;99.90;;;;;;5025099;28;20029;-78
2022/09/19 03:42:36;;;;;;;11.63;2.30;;;11.00;99.90;;;;;;5047418;28;20044;-78
2022/09/19 03:45:04;;;;;;;11.05;1.65;;;11.00;99.90;;;;;;5042559;28;20084;-78
2022/09/19 03:47:32;;;;;;;9.40;1.70;;;11.00;99.90;;;;;;5029538;28;20049;-77
2022/09/19 03:49:58;;;;;;;9.05;1.95;;;11.10;99.90;;;;;;5045042;28;20484;-78
2022/09/19 03:52:27;;;;;;;10.85;2.13;;;10.90;99.90;;;;;;5043776;28;20057;-78
2022/09/19 03:54:53;;;;;;;7.03;1.50;;;10.90;99.90;;;;;;5026002;28;20055;-78
2022/09/19 03:57:19;;;;;;;9.90;1.95;;;11.10;99.90;;;;;;5019278;28;20056;-78
2022/09/19 03:59:47;;;;;;;9.90;2.08;;;11.40;99.90;;;;;;5044722;28;20068;-78
2022/09/19 04:02:12;;;;;;;11.25;1.90;;;10.90;99.90;;;;;;5028914;28;20123;-77
2022/09/19 04:04:38;;;;;;;9.20;1.95;;;11.10;99.90;;;;;;5043539;28;20124;-78
2022/09/19 04:07:05;;;;;;;8.45;1.88;;;11.00;99.90;;;;;;5044142;28;20088;-77
2022/09/19 04:09:35;;;;;;;10.30;2.10;;;11.00;99.90;;;;;;5030682;28;20378;-77
2022/09/19 04:12:04;;;;;;;13.30;2.75;;;11.00;99.90;;;;;;5045474;28;20037;-76
2022/09/19 04:14:30;;;;;;;7.25;1.70;;;11.00;99.90;;;;;;5045814;28;20373;-78
2022/09/19 04:16:56;;;;;;;9.60;2.20;;;11.10;99.90;;;;;;5040735;28;20054;-78
2022/09/19 04:19:26;;;;;;;9.00;2.38;;;11.60;99.90;;;;;;5047566;28;20025;-77
2022/09/19 04:22:01;;;;;;;10.52;1.90;;;11.10;99.90;;;;;;5039528;28;20048;-77
2022/09/19 04:24:29;;;;;;;9.43;1.75;;;11.60;99.90;;;;;;5027909;28;20032;-76
2022/09/19 04:26:59;;;;;;;13.68;2.00;;;11.30;99.90;;;;;;5025345;28;20072;-77
2022/09/19 04:29:27;;;;;;;10.23;1.92;;;11.10;99.90;;;;;;5046285;28;20492;-77
2022/09/19 04:31:55;;;;;;;13.10;2.65;;;11.00;99.90;;;;;;5045911;28;20524;-76
2022/09/19 04:34:20;;;;;;;11.30;2.30;;;11.00;99.90;;;;;;5043969;28;20037;-77
2022/09/19 04:36:50;;;;;;;9.63;2.10;;;10.90;99.90;;;;;;5021121;28;20033;-77
2022/09/19 04:39:15;;;;;;;10.30;1.70;;;10.90;99.90;;;;;;5039879;28;20135;-77
2022/09/19 04:41:42;;;;;;;10.88;1.83;;;10.90;99.90;;;;;;5043152;28;20033;-76
2022/09/19 04:44:10;;;;;;;9.82;1.70;;;10.80;99.90;;;;;;5045123;28;20041;-77
2022/09/19 04:46:41;;;;;;;8.20;2.20;;;11.00;99.90;;;;;;5040195;28;20056;-79
2022/09/19 04:49:07;;;;;;;13.85;2.35;;;10.70;99.90;;;;;;5048027;28;20037;-79
2022/09/19 04:51:37;;;;;;;6.38;1.83;;;10.70;99.90;;;;;;5029098;28;20041;-79
2022/09/19 04:54:05;;;;;;;8.15;1.75;;;11.30;99.90;;;;;;5025600;28;20111;-79
2022/09/19 04:56:31;;;;;;;10.90;1.92;;;10.60;99.90;;;;;;5027833;28;20117;-79
2022/09/19 04:58:59;;;;;;;10.88;2.45;;;11.20;99.90;;;;;;5019191;28;20083;-79
2022/09/19 05:01:30;;;;;;;13.50;2.15;;;11.10;99.90;;;;;;5051727;28;20536;-80
2022/09/19 05:03:56;;;;;;;9.45;1.92;;;10.50;99.90;;;;;;5037079;28;20045;-79
2022/09/19 05:06:22;;;;;;;9.35;1.70;;;10.50;99.90;;;;;;5033697;28;20043;-79
2022/09/19 05:08:47;;;;;;;8.52;1.83;;;10.50;99.90;;;;;;5038436;28;20037;-79
2022/09/19 05:11:13;;;;;;;13.27;1.85;;;10.80;99.90;;;;;;5048126;28;20195;-79
2022/09/19 05:13:40;;;;;;;7.88;1.92;;;10.40;99.90;;;;;;5028493;28;20398;-78
2022/09/19 05:16:07;;;;;;;13.85;2.20;;;10.40;99.90;;;;;;5044808;28;20049;-78
2022/09/19 05:18:37;;;;;;;11.80;1.92;;;10.70;99.90;;;;;;5048431;28;20485;-78
2022/09/19 05:21:06;;;;;;;14.02;2.00;;;10.90;99.90;;;;;;5027991;28;20084;-84
2022/09/19 05:23:32;;;;;;;9.07;2.10;;;10.30;99.90;;;;;;5049949;28;20045;-76
2022/09/19 05:26:06;;;;;;;12.25;1.75;;;10.30;99.90;;;;;;5041771;28;20068;-76
2022/09/19 05:28:33;;;;;;;10.25;1.83;;;10.30;99.90;;;;;;5034344;28;20083;-75
2022/09/19 05:31:04;;;;;;;14.02;2.05;;;10.20;99.90;;;;;;5034539;28;20135;-75
2022/09/19 05:33:29;;;;;;;9.30;1.90;;;10.80;99.90;;;;;;5034014;28;20112;-74
2022/09/19 05:36:00;;;;;;;10.40;2.50;;;10.20;99.90;;;;;;5033483;28;20152;-76
2022/09/19 05:38:31;;;;;;;11.32;1.77;;;10.20;99.90;;;;;;5016015;28;20044;-77
2022/09/19 05:41:00;;;;;;;9.20;1.45;;;10.20;99.90;;;;;;5041821;28;20110;-74
2022/09/19 05:43:26;;;;;;;10.85;1.85;;;10.10;99.90;;;;;;5034970;28;20044;-77
2022/09/19 05:45:54;;;;;;;8.63;2.05;;;10.10;99.90;;;;;;5013713;28;20045;-77
2022/09/19 05:48:21;;;;;;;8.55;1.67;;;10.10;99.90;;;;;;5017116;28;20178;-77
2022/09/19 05:50:48;;;;;;;15.65;2.30;;;10.10;99.90;;;;;;5018726;28;20045;-77
2022/09/19 05:56:00;;;;;;;8.45;1.88;;;10.10;99.90;;;;;;5043484;28;20090;-76
2022/09/19 05:58:30;;;;;;;11.60;1.83;;;10.10;99.90;;;;;;5046376;28;20120;-82
2022/09/19 06:00:56;;;;;;;13.98;2.38;;;10.20;99.90;;;;;;5024327;28;20040;-77
2022/09/19 06:03:22;;;;;;;10.32;2.03;;;10.20;99.90;;;;;;5041145;28;20413;-77
2022/09/19 06:05:51;;;;;;;8.48;1.90;;;10.20;99.90;;;;;;5032452;28;20095;-77
2022/09/19 06:08:19;;;;;;;10.85;1.85;;;10.20;99.90;;;;;;5032600;28;20400;-77
2022/09/19 06:10:46;;;;;;;12.02;1.83;;;10.20;99.90;;;;;;5029809;28;20500;-77
2022/09/19 06:13:20;;;;;;;11.60;2.03;;;10.20;99.90;;;;;;5040139;28;20081;-76
2022/09/19 06:15:46;;;;;;;10.13;2.35;;;10.30;99.90;;;;;;5031928;28;20071;-77
2022/09/19 06:18:12;;;;;;;10.45;2.25;;;10.30;99.90;;;;;;5048366;28;20029;-76
2022/09/19 06:20:43;;;;;;;10.48;2.00;;;10.30;99.90;;;;;;5045958;28;20039;-75
2022/09/19 06:23:10;;;;;;;9.18;1.92;;;10.30;99.90;;;;;;5036915;28;20041;-75
2022/09/19 06:25:38;;;;;;;7.90;1.77;;;10.30;99.90;;;;;;5039681;28;20049;-77
2022/09/19 06:28:11;;;;;;;13.38;2.10;;;10.30;99.90;;;;;;5045038;28;20489;-77
2022/09/19 06:30:39;;;;;;;11.70;1.83;;;10.30;99.90;;;;;;5040875;28;20448;-76
2022/09/19 06:33:09;;;;;;;7.32;1.73;;;10.30;99.90;;;;;;5037809;28;20470;-76
2022/09/19 06:35:35;;;;;;;9.60;1.77;;;10.30;99.90;;;;;;5044107;28;20080;-76
2022/09/19 06:38:07;;;;;;;8.05;1.70;;;10.30;99.90;;;;;;5036252;28;20080;-76
2022/09/19 06:40:37;;;;;;;;;;;10.30;99.90;;;;;;5020675;28;20057;-80
2022/09/19 06:43:06;;;;;;;10.43;1.85;;;10.30;99.90;;;;;;5040907;28;19917;-80
2022/09/19 06:45:41;;;;;;;9.90;1.80;;;10.30;99.90;;;;;;5038137;28;20045;-80
2022/09/19 06:48:10;;;;;;;10.23;1.65;;;10.40;99.90;;;;;;5048823;28;20449;-80
2022/09/19 06:50:39;;;;;;;8.10;2.00;;;10.30;99.90;;;;;;5040315;28;20041;-80
2022/09/19 06:53:05;;;;;;;8.15;1.70;;;10.40;99.90;;;;;;5034871;28;20045;-76
2022/09/19 06:55:31;;;;;;;9.25;1.60;;;10.40;99.90;;;;;;5043459;28;20049;-76
2022/09/19 06:58:02;;;;;;;12.63;1.98;;;10.60;99.90;;;;;;5038089;28;20046;-76
2022/09/19 07:00:30;;;;;;;8.30;1.80;;;10.50;99.90;;;;;;5046456;28;20044;-76
2022/09/19 07:03:09;;;;;;;7.40;1.48;;;10.50;99.90;;;;;;5043079;28;20056;-76
2022/09/19 07:05:39;;;;;;;12.80;1.85;;;10.50;99.90;;;;;;5031060;28;20496;-76
2022/09/19 07:08:05;;;;;;;8.60;1.60;;;10.60;99.90;;;;;;5044788;28;20041;-76
2022/09/19 07:10:33;;;;;;;6.95;1.58;;;10.70;99.90;;;;;;5031173;28;20042;-76
2022/09/19 07:13:02;;;;;;;8.55;1.42;;;10.60;99.90;;;;;;5028032;28;20087;-75
2022/09/19 07:15:33;;;;;;;6.95;1.30;;;10.70;99.90;;;;;;5023447;28;20029;-77
2022/09/19 07:17:59;;;;;;;6.93;1.60;;;10.70;99.90;;;;;;5046723;28;20044;-76
2022/09/19 07:20:27;;;;;;;10.75;1.70;;;10.90;99.90;;;;;;5053893;28;20040;-77
2022/09/19 07:23:03;;;;;;;12.40;1.67;;;10.90;99.90;;;;;;5043535;28;20036;-77
2022/09/19 07:25:30;;;;;;;7.85;1.40;;;10.70;99.90;;;;;;5036332;28;20041;-77
2022/09/19 07:28:04;;;;;;;10.73;1.70;;;11.00;99.90;;;;;;5030619;28;20051;-75
2022/09/19 07:30:31;;;;;;;13.05;1.70;;;10.80;99.90;;;;;;5056318;28;20052;-77
2022/09/19 07:32:59;;;;;;;12.25;1.85;;;10.80;99.90;;;;;;5052017;28;20074;-76
2022/09/19 07:35:27;;;;;;;10.93;1.60;;;11.00;99.90;;;;;;5047272;28;20037;-77
2022/09/19 07:37:55;;;;;;;10.93;1.80;;;10.90;99.90;;;;;;5036279;28;20045;-75
2022/09/19 07:40:21;;;;;;;10.77;1.40;;;11.00;99.90;;;;;;5045671;28;20029;-75
2022/09/19 07:42:47;;;;;;;17.15;1.83;;;11.00;99.90;;;;;;5040704;28;20045;-76
2022/09/19 07:45:12;;;;;;;10.63;1.85;;;11.20;99.90;;;;;;5047446;28;20043;-76
2022/09/19 07:47:42;;;;;;;13.15;1.65;;;11.20;99.90;;;;;;5050258;28;20051;-77
2022/09/19 07:50:09;;;;;;;11.52;1.60;;;11.30;99.90;;;;;;5045461;28;20032;-76
2022/09/19 07:52:36;;;;;;;8.23;1.75;;;11.60;99.90;;;;;;5034660;28;20040;-76
2022/09/19 07:55:02;;;;;;;11.02;1.80;;;11.50;99.90;;;;;;5042105;28;20040;-75
2022/09/19 07:57:29;;;;;;;9.75;1.80;;;11.50;99.90;;;;;;5033696;28;20028;-75
2022/09/19 07:59:54;;;;;;;11.02;1.92;;;11.60;99.90;;;;;;5030427;28;20432;-75
2022/09/19 08:02:20;;;;;;;12.10;1.83;;;11.80;99.90;;;;;;5045753;28;20038;-75
2022/09/19 08:04:46;;;;;;;10.02;1.60;;;11.80;99.90;;;;;;5041476;28;20424;-74
2022/09/19 08:07:13;;;;;;;15.02;1.98;;;11.90;99.90;;;;;;5043680;28;20051;-75
2022/09/19 08:09:39;;;;;;;10.70;1.70;;;11.90;99.90;;;;;;5019786;28;20056;-75
2022/09/19 08:12:06;;;;;;;8.48;1.50;;;12.00;99.90;;;;;;5045241;28;20041;-75
2022/09/19 08:14:31;;;;;;;18.48;2.03;;;12.10;99.90;;;;;;5026651;28;20075;-75
2022/09/19 08:16:57;;;;;;;13.05;1.92;;;12.10;99.90;;;;;;5033013;28;20033;-75
2022/09/19 08:19:23;;;;;;;10.27;1.85;;;12.40;99.90;;;;;;5046131;28;20044;-79
2022/09/19 08:21:52;;;;;;;9.82;1.73;;;12.20;99.90;;;;;;5015958;28;20037;-81
2022/09/19 08:24:18;;;;;;;10.07;1.70;;;12.30;99.90;;;;;;5020449;28;20373;-77
2022/09/19 08:26:45;;;;;;;12.75;1.80;;;12.30;99.90;;;;;;5030893;28;20482;-75
2022/09/19 08:29:10;;;;;;;10.05;1.90;;;12.30;99.90;;;;;;5031611;28;20485;-75
2022/09/19 08:31:38;;;;;;;8.32;1.80;;;12.40;99.90;;;;;;5041871;28;20033;-80
2022/09/19 08:34:03;;;;;;;13.98;2.00;;;12.50;99.90;;;;;;5030767;28;20128;-78
2022/09/19 08:36:32;;;;;;;13.23;1.90;;;12.50;99.90;;;;;;5035672;28;20064;-75
2022/09/19 08:39:01;;;;;;;9.23;1.60;;;12.50;99.90;;;;;;5030457;28;20095;-75
2022/09/19 08:41:38;;;;;;;9.05;1.95;;;12.60;99.90;;;;;;5023166;28;20033;-77
2022/09/19 08:44:32;;;;;;;13.70;1.63;;;13.00;99.90;;;;;;5035886;28;20550;-75
2022/09/19 08:47:09;;;;;;;8.40;1.50;;;12.70;99.90;;;;;;5038149;28;20399;-77
2022/09/19 08:49:43;;;;;;;8.63;1.75;;;12.70;99.90;;;;;;5034861;28;20583;-78
2022/09/19 08:52:25;;;;;;;9.25;1.98;;;12.80;99.90;;;;;;5032032;28;20543;-78
2022/09/19 08:54:57;;;;;;;11.02;1.60;;;13.30;99.90;;;;;;5045760;28;20535;-76
2022/09/19 08:57:33;;;;;;;8.32;1.55;;;12.90;99.90;;;;;;5033725;28;20037;-79
2022/09/19 09:00:24;;;;;;;8.85;2.00;;;13.00;99.90;;;;;;5035165;28;20127;-83
2022/09/19 09:03:13;;;;;;;8.50;1.67;;;13.00;99.90;;;;;;5022771;28;20119;-79
2022/09/19 09:06:08;;;;;;;10.27;2.05;;;13.10;99.90;;;;;;5029576;28;20560;-79
2022/09/19 09:09:03;;;;;;;11.63;1.92;;;13.20;99.90;;;;;;5015575;28;20044;-79
2022/09/19 09:12:17;;;;;;;14.13;1.80;;;13.20;99.90;;;;;;5019268;28;20040;-79
2022/09/19 09:43:05;;;;;;;11.30;1.90;;;14.60;99.90;;;;;;5033602;22;20483;-62
2022/09/19 09:45:44;;;;;;;14.32;1.92;;;14.60;99.90;;;;;;5024159;28;20391;-62
2022/09/19 09:48:26;;;;;;;8.63;2.05;;;14.70;99.90;;;;;;5014552;28;20203;-69
2022/09/19 09:51:50;;;;;;;11.68;2.35;;;14.90;99.90;;;;;;5029679;28;20049;-62
2022/09/19 09:57:52;;;;;;;12.35;1.70;;;15.20;99.90;;;;;;4984602;28;20106;-62
2022/09/19 10:03:38;;;;;;;10.88;2.05;;;15.30;99.90;;;;;;5028115;28;20037;-62
2022/09/19 10:06:31;;;;;;;9.07;2.13;;;15.30;99.90;;;;;;5024854;28;20075;-66
2022/09/19 10:09:05;;;;;;;;;;;15.20;99.90;;;;;;5027605;28;20045;-64
2022/09/19 10:11:44;;;;;;;12.85;2.58;;;15.10;99.90;;;;;;5014186;28;19918;-62
2022/09/19 10:14:20;;;;;;;10.70;2.03;;;15.00;99.90;;;;;;5028764;28;20413;-61
2022/09/19 10:16:52;;;;;;;11.95;2.10;;;15.00;99.90;;;;;;5021997;28;20086;-61
2022/09/19 10:19:30;;;;;;;11.68;2.28;;;15.30;99.90;;;;;;5023121;28;20688;-62
2022/09/19 10:21:57;;;;;;;13.27;2.10;;;15.60;99.90;;;;;;5026331;28;20033;-61
2022/09/19 10:24:41;;;;;;;10.55;1.85;;;15.90;99.90;;;;;;5025714;28;20030;-68
2022/09/19 10:27:15;;;;;;;8.50;2.20;;;16.00;99.90;;;;;;5027904;28;20049;-62
2022/09/19 10:30:01;;;;;;;11.68;2.42;;;16.10;99.90;;;;;;5028935;28;20450;-64
2022/09/19 10:32:36;;;;;;;10.15;2.20;;;16.00;99.90;;;;;;5030337;28;20121;-62
2022/09/19 10:35:26;;;;;;;8.82;1.83;;;15.80;99.90;;;;;;5013419;28;20484;-61
2022/09/19 10:38:05;;;;;;;6.25;1.70;;;15.60;99.90;;;;;;5021769;28;20403;-62
2022/09/19 10:40:31;;;;;;;9.02;1.77;;;15.40;99.90;;;;;;5031591;28;20396;-62
2022/09/19 10:42:59;;;;;;;5.72;1.48;;;15.30;99.90;;;;;;5030857;28;20546;-66
2022/09/19 10:45:36;;;;;;;9.27;1.80;;;15.20;99.90;;;;;;5027931;28;20499;-62
2022/09/19 10:48:31;;;;;;;8.27;1.52;;;15.10;99.90;;;;;;5030812;28;20377;-64
2022/09/19 10:50:59;;;;;;;7.45;1.40;;;15.20;99.90;;;;;;5027852;28;20396;-62
2022/09/19 10:53:30;;;;;;;7.35;2.38;;;15.40;99.90;;;;;;5031412;28;20041;-63
2022/09/19 10:56:04;;;;;;;6.70;1.60;;;15.60;99.90;;;;;;5027167;28;20108;-64
2022/09/19 10:58:35;;;;;;;8.15;1.83;;;15.90;99.90;;;;;;5028484;28;20050;-63
2022/09/19 11:01:03;;;;;;;9.07;1.67;;;16.10;99.90;;;;;;5029967;28;20033;-63
2022/09/19 11:03:31;;;;;;;8.10;1.58;;;16.30;99.90;;;;;;5026774;28;21490;-63
2022/09/19 11:06:13;;;;;;;9.43;2.10;;;16.50;99.90;;;;;;5028169;28;20145;-64
2022/09/19 11:08:49;;;;;;;9.38;2.08;;;16.70;99.90;;;;;;5030085;28;20048;-63
2022/09/19 11:11:36;;;;;;;6.85;1.73;;;16.80;99.90;;;;;;5027479;28;20108;-64
2022/09/19 11:14:18;;;;;;;9.63;2.47;;;16.90;99.90;;;;;;5026792;28;20034;-63
2022/09/19 11:17:06;;;;;;;7.30;1.88;;;17.10;99.90;;;;;;5029657;28;20042;-63
2022/09/19 11:19:51;;;;;;;6.22;1.70;;;17.20;99.90;;;;;;5027981;28;20046;-64
2022/09/19 11:22:34;;;;;;;7.38;1.60;;;17.40;99.90;;;;;;5026603;28;20490;-64
2022/09/19 11:25:05;;;;;;;6.05;1.45;;;17.40;99.90;;;;;;5028596;28;20046;-64
2022/09/19 11:27:39;;;;;;;5.65;1.63;;;17.40;99.90;;;;;;5025144;28;20113;-64
2022/09/19 11:30:53;;;;;;;8.35;1.80;;;17.50;99.90;;;;;;5022548;28;20117;-64
2022/09/19 11:33:24;;;;;;;8.65;1.45;;;17.40;99.90;;;;;;5019467;28;20609;-64
2022/09/19 11:36:05;;;;;;;8.38;1.60;;;17.20;99.90;;;;;;5029114;28;20058;-63
2022/09/19 11:39:10;;;;;;;9.30;2.13;;;17.00;99.90;;;;;;5028786;28;20512;-64
2022/09/19 11:42:20;;;;;;;10.02;1.95;;;16.70;99.90;;;;;;5015178;28;20407;-64
2022/09/19 11:44:57;;;;;;;5.63;1.30;;;16.40;99.90;;;;;;4998216;28;20129;-64
2022/09/19 11:47:32;;;;;;;8.82;1.88;;;16.30;99.90;;;;;;5023197;28;20069;-64
2022/09/19 11:50:20;;;;;;;5.80;1.38;;;16.10;99.90;;;;;;5024821;28;20057;-64
2022/09/19 11:52:58;;;;;;;7.43;1.70;;;15.90;99.90;;;;;;5035240;28;20034;-64
2022/09/19 11:55:27;;;;;;;7.07;1.40;;;15.60;99.90;;;;;;5025748;28;20053;-63
2022/09/19 11:58:22;;;;;;;8.45;2.17;;;15.40;99.90;;;;;;5025789;28;20049;-63
2022/09/19 12:01:17;;;;;;;8.43;1.50;;;15.10;99.90;;;;;;5027087;28;20037;-63
2022/09/19 12:04:05;;;;;;;7.97;1.65;;;14.90;99.90;;;;;;4976208;28;20442;-63
2022/09/19 12:06:34;;;;;;;7.63;1.63;;;14.80;99.90;;;;;;5020059;28;20623;-63
2022/09/19 12:09:34;;;;;;;9.23;1.52;;;14.70;99.90;;;;;;5027726;28;20458;-63
2022/09/19 12:12:11;;;;;;;9.10;1.48;;;14.70;99.90;;;;;;5018714;28;20037;-64
2022/09/19 12:15:15;;;;;;;9.40;1.92;;;14.60;99.90;;;;;;5026927;28;20034;-63
2022/09/19 12:17:43;;;;;;;6.50;1.92;;;14.70;99.90;;;;;;5026443;28;20044;-62
2022/09/19 12:20:18;;;;;;;7.38;2.03;;;14.70;99.90;;;;;;5028381;28;20045;-63
2022/09/19 12:22:57;;;;;;;7.90;1.63;;;14.70;99.90;;;;;;5022577;28;20156;-64
2022/09/19 12:25:29;;;;;;;5.97;1.52;;;14.80;99.90;;;;;;5023890;28;20041;-62
2022/09/19 12:28:03;;;;;;;7.03;1.60;;;14.90;99.90;;;;;;5022611;28;20492;-64
2022/09/19 12:30:34;;;;;;;6.80;1.75;;;14.90;99.90;;;;;;5022491;28;20407;-62
2022/09/19 12:33:04;;;;;;;6.63;1.40;;;15.00;99.90;;;;;;5027461;28;20044;-63
2022/09/19 12:35:49;;;;;;;8.40;1.85;;;15.10;99.90;;;;;;5021450;28;20067;-63
2022/09/19 12:38:39;;;;;;;8.32;2.03;;;15.10;99.90;;;;;;5029524;28;20068;-63
2022/09/19 12:41:17;;;;;;;7.68;1.85;;;15.20;99.90;;;;;;5023773;28;20033;-63
2022/09/19 12:44:04;;;;;;;10.27;1.80;;;15.30;99.90;;;;;;5027910;28;20435;-64
2022/09/19 12:46:57;;;;;;;7.80;2.00;;;15.40;99.90;;;;;;5024205;28;20042;-65
2022/09/19 12:49:45;;;;;;;8.00;1.85;;;15.50;99.90;;;;;;5026739;28;20110;-63
2022/09/19 12:52:22;;;;;;;10.70;1.70;;;15.60;99.90;;;;;;5024370;28;20037;-64
2022/09/19 12:55:15;;;;;;;9.02;1.80;;;15.60;99.90;;;;;;5018108;28;20042;-63
2022/09/19 12:58:04;;;;;;;8.18;1.60;;;15.60;99.90;;;;;;5021751;28;20369;-63
2022/09/19 13:29:53;;;;;;;10.05;2.33;;;15.30;99.90;;;;;;5088663;28;20372;-62
2022/09/19 13:32:54;;;;;;;10.27;2.22;;;15.10;99.90;;;;;;5060701;28;20396;-62
2022/09/19 13:35:22;;;;;;;8.73;1.95;;;15.10;99.90;;;;;;5023400;28;20099;-63
2022/09/19 13:37:57;;;;;;;8.30;1.70;;;15.10;99.90;;;;;;5037537;28;20186;-62
2022/09/19 13:40:56;;;;;;;9.05;1.95;;;15.10;99.90;;;;;;5057903;28;20458;-64
2022/09/19 13:43:34;;;;;;;7.90;2.42;;;15.10;99.90;;;;;;5075834;28;20039;-64
2022/09/19 13:46:19;;;;;;;9.07;1.80;;;15.10;99.90;;;;;;5069892;28;20037;-63
2022/09/19 13:48:52;;;;;;;11.30;2.00;;;15.10;99.90;;;;;;5055141;28;20037;-63
2022/09/19 13:51:30;;;;;;;6.47;1.60;;;15.10;99.90;;;;;;5072914;28;20044;-63
2022/09/19 13:54:18;;;;;;;6.90;1.70;;;15.00;99.90;;;;;;5076778;28;20054;-64
2022/09/19 13:57:01;;;;;;;7.13;1.58;;;15.00;99.90;;;;;;5066661;28;20051;-64
2022/09/19 13:59:42;;;;;;;8.70;1.90;;;15.00;99.90;;;;;;5025290;28;20044;-63
2022/09/19 14:02:11;;;;;;;9.88;1.60;;;15.10;99.90;;;;;;5057449;28;20399;-64
2022/09/19 14:04:57;;;;;;;4.55;1.38;;;15.20;99.90;;;;;;5066358;28;20043;-61
2022/09/19 14:07:57;;;;;;;5.95;1.17;;;15.40;99.90;;;;;;5057931;28;20120;-64
2022/09/19 14:10:28;;;;;;;6.25;1.35;;;15.40;99.90;;;;;;5004191;28;20414;-64
2022/09/19 14:12:56;;;;;;;4.85;1.23;;;15.40;99.90;;;;;;5074505;28;20094;-64
2022/09/19 14:15:40;;;;;;;7.28;1.73;;;15.40;99.90;;;;;;5069201;28;20078;-64
2022/09/19 14:18:12;;;;;;;9.10;2.17;;;15.40;99.90;;;;;;5058020;28;20033;-64
2022/09/19 14:20:59;;;;;;;9.63;1.75;;;15.40;99.90;;;;;;5076734;28;20052;-63
2022/09/19 14:23:48;;;;;;;7.65;1.70;;;15.40;99.90;;;;;;5061237;28;20070;-64
2022/09/19 14:26:14;;;;;;;8.38;1.92;;;15.40;99.90;;;;;;5064734;28;20512;-63
2022/09/19 14:28:58;;;;;;;8.93;1.60;;;15.40;99.90;;;;;;5064672;28;20083;-62
2022/09/19 14:31:23;;;;;;;9.68;1.88;;;15.40;99.90;;;;;;5031344;28;20067;-63